Time;durP1;ratioP1;P1;durP2;ratioP2;P2;SDS_P1;SDS_P2;PMS_P1;PMS_P2;Temp;Humidity;BMP_temperature;BMP_pressure;BME280_temperature;BME280_humidity;BME280_pressure;Samples;Min_cycle;Max_cycle;Signal;HPM_P1;HPM_P2
2023/07/22 00:00:30;;;;;;;;;;;;;;;29.73;38.78;94289.06;5062276;28;7161;-61
2023/07/22 00:02:59;;;;;;;;;;;;;;;29.76;39.23;94284.50;5045506;28;9021;-62
2023/07/22 00:05:27;;;;;;;;;;;;;;;29.75;38.93;94283.75;5065705;28;6994;-61
2023/07/22 00:08:02;;;;;;;;;;;;;;;29.75;38.76;94286.53;5039987;28;8672;-61
2023/07/22 00:10:59;;;;;;;;;;;;;;;29.73;39.22;94289.06;5049711;28;7488;-60
2023/07/22 00:13:47;;;;;;;;;;;;;;;29.72;38.05;94281.31;5052573;28;7022;-61
2023/07/22 00:16:19;;;;;;;;;;;;;;;29.72;38.55;94279.28;5040166;28;9095;-61
2023/07/22 00:18:53;;;;;;;;;;;;;;;29.70;38.76;94284.63;5033266;28;9146;-61
2023/07/22 00:21:36;;;;;;;;;;;;;;;29.68;38.12;94272.59;5052164;28;7220;-61
2023/07/22 00:24:15;;;;;;;;;;;;;;;29.69;38.44;94274.06;5053557;28;7457;-61
2023/07/22 00:27:18;;;;;;;;;;;;;;;29.69;38.90;94268.50;5034909;28;9218;-61
2023/07/22 00:29:56;;;;;;;;;;;;;;;29.66;38.51;94267.59;5035341;28;7237;-61
2023/07/22 00:32:22;;;;;;;;;;;;;;;29.62;38.33;94263.66;5032690;28;9083;-61
2023/07/22 00:34:48;;;;;;;;;;;;;;;29.63;38.38;94267.91;5068581;28;7006;-61
2023/07/22 00:37:34;;;;;;;;;;;;;;;29.63;38.97;94265.13;5035621;28;7152;-61
2023/07/22 00:40:11;;;;;;;;;;;;;;;29.59;38.22;94268.25;5031123;28;7260;-61
2023/07/22 00:42:50;;;;;;;;;;;;;;;29.59;39.14;94264.75;5032536;28;7257;-60
2023/07/22 00:45:19;;;;;;;;;;;;;;;29.61;39.37;94260.16;5030957;28;6990;-63
2023/07/22 00:47:46;;;;;;;;;;;;;;;29.60;38.35;94255.16;5056529;28;9186;-63
2023/07/22 00:50:14;;;;;;;;;;;;;;;29.59;39.37;94248.09;5049450;28;7281;-63
2023/07/22 00:52:49;;;;;;;;;;;;;;;29.58;38.50;94250.13;5036148;28;6955;-63
2023/07/22 00:55:15;;;;;;;;;;;;;;;29.58;38.85;94249.41;5011058;28;7202;-63
2023/07/22 00:57:55;;;;;;;;;;;;;;;29.58;38.15;94249.41;5039131;28;7330;-63
2023/07/22 01:00:35;;;;;;;;;;;;;;;29.57;39.24;94247.91;5048389;28;7372;-64
2023/07/22 01:03:13;;;;;;;;;;;;;;;29.58;39.37;94257.72;5034924;28;7337;-64
2023/07/22 01:05:39;;;;;;;;;;;;;;;29.54;38.50;94260.06;5028513;28;7041;-63
2023/07/22 01:08:06;;;;;;;;;;;;;;;29.57;38.92;94259.00;5034665;28;9114;-63
2023/07/22 01:10:56;;;;;;;;;;;;;;;29.55;39.03;94256.03;5066516;28;6871;-63
2023/07/22 01:13:23;;;;;;;;;;;;;;;29.57;39.31;94259.00;5061755;28;7156;-63
2023/07/22 01:15:52;;;;;;;;;;;;;;;29.56;38.64;94258.25;5031448;28;7167;-62
2023/07/22 01:18:26;;;;;;;;;;;;;;;29.54;38.52;94248.97;5055860;28;9105;-64
2023/07/22 01:20:54;;;;;;;;;;;;;;;29.55;39.34;94253.25;5063778;28;9621;-64
2023/07/22 01:23:29;;;;;;;;;;;;;;;29.57;38.48;94256.97;5035239;28;7068;-63
2023/07/22 01:26:03;;;;;;;;;;;;;;;29.54;38.64;94249.72;5067857;28;7589;-64
2023/07/22 01:28:35;;;;;;;;;;;;;;;29.55;39.10;94239.41;5064844;28;8792;-63
2023/07/22 01:31:06;;;;;;;;;;;;;;;29.52;39.28;94232.16;5063371;28;6989;-64
2023/07/22 01:33:45;;;;;;;;;;;;;;;29.48;39.04;94240.06;5068632;28;6984;-64
2023/07/22 01:36:14;;;;;;;;;;;;;;;29.53;38.74;94244.72;5039598;28;7007;-63
2023/07/22 01:39:00;;;;;;;;;;;;;;;29.52;38.21;94240.47;5052993;28;8143;-63
2023/07/22 01:41:34;;;;;;;;;;;;;;;29.53;38.47;94241.97;5044834;28;7183;-63
2023/07/22 01:44:04;;;;;;;;;;;;;;;29.53;38.75;94239.94;5036318;28;6984;-63
2023/07/22 01:46:36;;;;;;;;;;;;;;;29.51;38.50;94239.00;5043144;28;7005;-63
2023/07/22 01:49:12;;;;;;;;;;;;;;;29.51;39.01;94236.22;5032849;28;6971;-63
2023/07/22 01:51:50;;;;;;;;;;;;;;;29.47;38.58;94233.03;5051222;28;6994;-63
2023/07/22 01:54:53;;;;;;;;;;;;;;;29.50;38.54;94241.00;5031026;28;9110;-56
2023/07/22 01:57:24;;;;;;;;;;;;;;;29.51;38.33;94250.06;5034900;28;7421;-56
2023/07/22 02:00:10;;;;;;;;;;;;;;;29.50;38.76;94252.09;5038364;28;7362;-56
2023/07/22 02:02:38;;;;;;;;;;;;;;;29.50;38.62;94248.56;5047637;28;7322;-56
2023/07/22 02:05:35;;;;;;;;;;;;;;;29.51;39.35;94244.53;5054295;28;9063;-56
2023/07/22 02:08:10;;;;;;;;;;;;;;;29.51;38.96;94244.53;5042626;28;7178;-56
2023/07/22 02:10:49;;;;;;;;;;;;;;;29.50;39.12;94252.09;5070894;28;8990;-56
2023/07/22 02:13:24;;;;;;;;;;;;;;;29.48;39.24;94259.47;5036923;28;7190;-56
2023/07/22 02:15:50;;;;;;;;;;;;;;;29.49;38.75;94252.66;5052939;28;7329;-56
2023/07/22 02:18:16;;;;;;;;;;;;;;;29.47;38.43;94249.66;5045988;28;7122;-56
2023/07/22 02:20:51;;;;;;;;;;;;;;;29.46;38.97;94248.91;5071753;28;7276;-56
2023/07/22 02:23:18;;;;;;;;;;;;;;;29.44;38.36;94234.13;5038841;28;6995;-56
2023/07/22 02:26:08;;;;;;;;;;;;;;;29.46;38.79;94248.16;5029332;28;8228;-56
2023/07/22 02:28:35;;;;;;;;;;;;;;;29.45;39.04;94250.19;5036261;28;6977;-56
2023/07/22 02:31:08;;;;;;;;;;;;;;;29.44;38.40;94256.28;5037661;28;7410;-56
2023/07/22 02:33:53;;;;;;;;;;;;;;;29.45;38.96;94249.47;5052472;28;7754;-56
2023/07/22 02:36:24;;;;;;;;;;;;;;;29.48;38.71;94237.28;5038132;28;7256;-56
2023/07/22 02:38:59;;;;;;;;;;;;;;;29.44;38.97;94236.88;5049739;28;8790;-60
2023/07/22 02:41:42;;;;;;;;;;;;;;;29.42;39.18;94236.69;5036186;28;7629;-56
2023/07/22 02:44:32;;;;;;;;;;;;;;;29.44;38.81;94237.63;5046437;28;7106;-56
2023/07/22 02:47:08;;;;;;;;;;;;;;;29.42;38.41;94236.69;5035936;28;9110;-56
2023/07/22 02:49:54;;;;;;;;;;;;;;;29.44;38.28;94231.34;5031408;28;8870;-56
2023/07/22 02:52:24;;;;;;;;;;;;;;;29.43;38.79;94229.84;5069870;28;8965;-56
2023/07/22 02:55:12;;;;;;;;;;;;;;;29.41;38.97;94235.19;5036928;28;7156;-56
2023/07/22 02:57:46;;;;;;;;;;;;;;;29.40;38.30;94228.91;5051919;28;9094;-56
2023/07/22 03:00:37;;;;;;;;;;;;;;;29.43;38.35;94229.84;5054796;28;8804;-56
2023/07/22 03:03:36;;;;;;;;;;;;;;;29.40;39.08;94217.09;5036999;28;6996;-56
2023/07/22 03:06:07;;;;;;;;;;;;;;;29.38;38.96;94214.13;5045861;28;7013;-57
2023/07/22 03:08:40;;;;;;;;;;;;;;;29.37;39.05;94215.38;5038728;28;9270;-57
2023/07/22 03:11:14;;;;;;;;;;;;;;;29.36;38.67;94222.94;5037003;28;7382;-57
2023/07/22 03:13:49;;;;;;;;;;;;;;;29.38;39.07;94230.75;5020255;28;8804;-57
2023/07/22 03:16:25;;;;;;;;;;;;;;;29.36;38.90;94227.78;5054474;28;7222;-57
2023/07/22 03:19:04;;;;;;;;;;;;;;;29.35;38.00;94224.25;5033864;28;6996;-57
2023/07/22 03:21:45;;;;;;;;;;;;;;;29.36;38.63;94231.25;5045234;28;7237;-56
2023/07/22 03:24:11;;;;;;;;;;;;;;;29.34;38.49;94227.56;5059934;28;8600;-57
2023/07/22 03:26:57;;;;;;;;;;;;;;;29.35;38.78;94221.47;5037336;28;7168;-57
2023/07/22 03:29:52;;;;;;;;;;;;;;;29.36;38.11;94233.31;5068990;28;8196;-57
2023/07/22 03:32:53;;;;;;;;;;;;;;;29.35;38.23;94226.28;5046620;28;7318;-57
2023/07/22 03:35:19;;;;;;;;;;;;;;;29.34;38.40;94224.78;5008787;28;7512;-57
2023/07/22 03:37:47;;;;;;;;;;;;;;;29.34;38.66;94219.97;5008208;28;7269;-57
2023/07/22 03:40:19;;;;;;;;;;;;;;;29.34;38.78;94222.03;4990992;28;7187;-57
2023/07/22 03:42:59;;;;;;;;;;;;;;;29.32;38.39;94230.84;4990832;28;7243;-57
2023/07/22 03:45:55;;;;;;;;;;;;;;;29.33;38.40;94237.91;5010852;28;7218;-57
2023/07/22 03:48:21;;;;;;;;;;;;;;;29.33;38.09;94232.34;4991001;28;6986;-56
2023/07/22 03:50:48;;;;;;;;;;;;;;;29.30;39.24;94224.38;5012290;28;7530;-57
2023/07/22 03:53:14;;;;;;;;;;;;;;;29.30;38.80;94224.38;4991382;28;6986;-57
2023/07/22 03:55:48;;;;;;;;;;;;;;;29.32;38.63;94227.38;4991891;28;7308;-57
2023/07/22 03:58:15;;;;;;;;;;;;;;;29.31;38.65;94226.63;4993520;28;9426;-57
2023/07/22 04:00:41;;;;;;;;;;;;;;;29.31;39.16;94221.06;4990445;28;9088;-57
2023/07/22 04:03:07;;;;;;;;;;;;;;;29.33;37.97;94234.38;5006869;28;7235;-57
2023/07/22 04:05:33;;;;;;;;;;;;;;;29.32;37.81;94230.84;5009530;28;7276;-56
2023/07/22 04:08:15;;;;;;;;;;;;;;;29.29;38.30;94233.97;4986833;28;7066;-57
2023/07/22 04:10:57;;;;;;;;;;;;;;;29.30;38.01;94243.75;5007704;28;7215;-56
2023/07/22 04:13:32;;;;;;;;;;;;;;;29.30;38.60;94240.97;5044993;28;7499;-57
2023/07/22 04:16:23;;;;;;;;;;;;;;;29.31;38.51;94236.94;5035298;28;7071;-63
2023/07/22 04:18:53;;;;;;;;;;;;;;;29.29;37.74;94234.72;5049270;28;7079;-63
2023/07/22 04:21:56;;;;;;;;;;;;;;;29.29;38.78;94243.03;5068768;28;8738;-63
2023/07/22 04:24:41;;;;;;;;;;;;;;;29.27;38.51;94242.84;4994027;28;7263;-63
2023/07/22 04:27:09;;;;;;;;;;;;;;;29.27;37.80;94242.84;5011995;28;9361;-64
2023/07/22 04:30:00;;;;;;;;;;;;;;;29.30;38.74;94240.97;4986831;28;7233;-64
2023/07/22 04:33:02;;;;;;;;;;;;;;;29.28;38.99;94243.56;5015066;28;7241;-63
2023/07/22 04:36:08;;;;;;;;;;;;;;;29.28;38.36;94249.09;4928655;28;9101;-63
2023/07/22 04:38:47;;;;;;;;;;;;;;;29.27;38.08;94251.16;4932938;29;7002;-63
2023/07/22 04:41:34;;;;;;;;;;;;;;;29.24;38.58;94243.16;4917570;29;7164;-63
2023/07/22 04:44:05;;;;;;;;;;;;;;;29.26;38.65;94251.66;4912018;29;9114;-63
2023/07/22 04:46:31;;;;;;;;;;;;;;;29.26;38.23;94255.19;4929731;29;7280;-63
2023/07/22 04:48:58;;;;;;;;;;;;;;;29.24;38.55;94254.22;4918343;29;6995;-63
2023/07/22 04:51:25;;;;;;;;;;;;;;;29.24;38.16;94265.31;4931235;29;7002;-63
2023/07/22 04:53:52;;;;;;;;;;;;;;;29.23;38.88;94269.38;4914839;29;7544;-63
2023/07/22 04:56:26;;;;;;;;;;;;;;;29.22;38.12;94260.31;4931285;29;7058;-63
2023/07/22 04:59:14;;;;;;;;;;;;;;;29.21;38.71;94256.03;4948341;28;7212;-63
2023/07/22 05:01:57;;;;;;;;;;;;;;;29.24;37.99;94270.84;4968626;28;7156;-64
2023/07/22 05:04:24;;;;;;;;;;;;;;;29.24;38.38;94265.31;4954293;28;6999;-63
2023/07/22 05:06:52;;;;;;;;;;;;;;;29.25;37.86;94277.88;4954777;28;7581;-63
2023/07/22 05:09:27;;;;;;;;;;;;;;;29.21;38.18;94269.88;4980178;28;7276;-63
2023/07/22 05:12:05;;;;;;;;;;;;;;;29.22;38.95;94281.72;5012162;28;7159;-63
2023/07/22 05:14:31;;;;;;;;;;;;;;;29.22;37.96;94281.72;5044503;28;6990;-64
2023/07/22 05:17:17;;;;;;;;;;;;;;;29.21;38.37;94272.66;5026902;28;6998;-63
2023/07/22 05:19:50;;;;;;;;;;;;;;;29.20;38.23;94271.19;5029064;28;9077;-63
2023/07/22 05:22:29;;;;;;;;;;;;;;;29.21;38.36;94280.25;5047756;28;9830;-62
2023/07/22 05:25:17;;;;;;;;;;;;;;;29.20;38.47;94282.28;5064911;28;8743;-64
2023/07/22 05:27:43;;;;;;;;;;;;;;;29.20;38.05;94289.81;5067220;28;7283;-63
2023/07/22 05:30:17;;;;;;;;;;;;;;;29.20;38.20;94287.81;5034065;28;7367;-64
2023/07/22 05:32:57;;;;;;;;;;;;;;;29.20;38.31;94292.59;5047948;28;6990;-64
2023/07/22 05:35:24;;;;;;;;;;;;;;;29.21;38.06;94283.03;5031973;28;6876;-64
2023/07/22 05:37:51;;;;;;;;;;;;;;;29.22;38.35;94292.81;5051960;28;9309;-64
2023/07/22 05:40:37;;;;;;;;;;;;;;;29.18;38.54;94289.63;5033101;28;7078;-64
2023/07/22 05:43:14;;;;;;;;;;;;;;;29.22;38.03;94288.00;5033019;28;9096;-64
2023/07/22 05:45:40;;;;;;;;;;;;;;;29.20;38.20;94289.81;5050145;28;7257;-63
2023/07/22 05:48:11;;;;;;;;;;;;;;;29.20;37.87;94293.34;5031078;28;6986;-63
2023/07/22 05:50:37;;;;;;;;;;;;;;;29.19;38.18;94296.66;5048551;28;8752;-63
2023/07/22 05:53:22;;;;;;;;;;;;;;;29.16;39.25;94300.47;5034125;28;6990;-63
2023/07/22 05:55:48;;;;;;;;;;;;;;;29.17;39.08;94302.00;5046616;28;7174;-63
2023/07/22 05:58:18;;;;;;;;;;;;;;;29.19;38.82;94296.66;5031229;28;7853;-62
2023/07/22 06:00:47;;;;;;;;;;;;;;;29.18;39.25;94300.69;5036014;28;9333;-63
2023/07/22 06:03:34;;;;;;;;;;;;;;;29.19;38.86;94302.94;5048734;28;7312;-63
2023/07/22 06:06:10;;;;;;;;;;;;;;;29.19;39.16;94297.38;5029130;28;9413;-62
2023/07/22 06:09:04;;;;;;;;;;;;;;;29.21;38.96;94305.19;5063184;28;7967;-63
2023/07/22 06:11:36;;;;;;;;;;;;;;;29.21;38.83;94305.19;5032582;28;9057;-64
2023/07/22 06:14:33;;;;;;;;;;;;;;;29.22;39.29;94303.88;5064550;28;9333;-63
2023/07/22 06:17:32;;;;;;;;;;;;;;;29.23;39.46;94314.41;5044377;28;7260;-62
2023/07/22 06:20:21;;;;;;;;;;;;;;;29.24;38.98;94309.63;4987886;28;7455;-64
2023/07/22 06:23:16;;;;;;;;;;;;;;;29.22;38.46;94312.94;4993079;28;9067;-64
2023/07/22 06:25:52;;;;;;;;;;;;;;;29.19;38.26;94313.28;5007996;28;6989;-64
2023/07/22 06:28:19;;;;;;;;;;;;;;;29.19;39.03;94321.59;4994724;28;7035;-63
2023/07/22 06:30:46;;;;;;;;;;;;;;;29.19;39.44;94322.31;5003749;28;8216;-63
2023/07/22 06:33:12;;;;;;;;;;;;;;;29.17;39.20;94327.66;4985339;28;8196;-63
2023/07/22 06:35:58;;;;;;;;;;;;;;;29.19;39.29;94324.38;5015447;28;7134;-63
2023/07/22 06:38:26;;;;;;;;;;;;;;;29.18;38.78;94323.63;5013954;28;7259;-64
2023/07/22 06:40:53;;;;;;;;;;;;;;;29.21;38.24;94338.41;5005315;28;7075;-64
2023/07/22 06:43:19;;;;;;;;;;;;;;;29.23;38.79;94339.34;5004157;28;7276;-64
2023/07/22 06:46:10;;;;;;;;;;;;;;;29.22;38.87;94337.13;4999848;28;9121;-64
2023/07/22 06:48:46;;;;;;;;;;;;;;;29.19;38.50;94338.94;5013255;28;9095;-64
2023/07/22 06:51:31;;;;;;;;;;;;;;;29.21;39.56;94343.97;4998671;28;7386;-64
2023/07/22 06:54:02;;;;;;;;;;;;;;;29.19;38.84;94341.00;5008182;28;9064;-64
2023/07/22 06:56:48;;;;;;;;;;;;;;;29.22;39.36;94339.91;5044854;28;9167;-64
2023/07/22 06:59:41;;;;;;;;;;;;;;;29.19;38.47;94336.16;5046995;28;7255;-64
2023/07/22 07:02:08;;;;;;;;;;;;;;;29.20;39.19;94336.91;4958857;28;6962;-64
2023/07/22 07:04:50;;;;;;;;;;;;;;;29.15;39.46;94335.72;4937699;28;9194;-64
2023/07/22 07:07:26;;;;;;;;;;;;;;;29.19;39.80;94341.72;4940772;28;9008;-64
2023/07/22 07:10:02;;;;;;;;;;;;;;;29.18;39.31;94347.78;4939601;28;7151;-64
2023/07/22 07:12:38;;;;;;;;;;;;;;;29.16;38.35;94339.25;4935606;28;6975;-64
2023/07/22 07:15:05;;;;;;;;;;;;;;;29.19;38.97;94344.47;4939938;28;7159;-63
2023/07/22 07:17:40;;;;;;;;;;;;;;;29.17;38.87;94343.53;4938804;28;7010;-64
2023/07/22 07:20:09;;;;;;;;;;;;;;;29.17;39.28;94344.28;4953908;28;7842;-64
2023/07/22 07:23:08;;;;;;;;;;;;;;;29.18;39.41;94343.00;4933307;28;6993;-64
2023/07/22 07:29:09;;;;;;;;;;;;;;;29.15;38.91;94354.38;4933302;29;7000;-63
2023/07/22 07:32:28;;;;;;;;;;;;;;;29.18;38.72;94347.78;4915760;29;9124;-63
2023/07/22 07:35:06;;;;;;;;;;;;;;;29.17;38.26;94349.09;4913756;29;7239;-64
2023/07/22 07:37:41;;;;;;;;;;;;;;;29.15;38.43;94344.03;4909453;29;9219;-64
2023/07/22 07:40:08;;;;;;;;;;;;;;;29.15;38.19;94351.59;4924314;29;9611;-64
2023/07/22 07:42:44;;;;;;;;;;;;;;;29.15;38.36;94357.88;4934089;29;7269;-64
2023/07/22 07:45:15;;;;;;;;;;;;;;;29.17;39.21;94358.13;4917552;29;7202;-63
2023/07/22 07:47:49;;;;;;;;;;;;;;;29.17;38.38;94355.34;4931643;28;7507;-63
2023/07/22 07:50:32;;;;;;;;;;;;;;;29.17;38.32;94360.16;4929377;29;7257;-63
2023/07/22 07:52:59;;;;;;;;;;;;;;;29.16;39.21;94362.19;4915933;29;8987;-62
2023/07/22 07:55:34;;;;;;;;;;;;;;;29.16;39.27;94364.97;4916265;29;9201;-62
2023/07/22 07:58:09;;;;;;;;;;;;;;;29.16;39.19;94364.19;4912315;29;9424;-62
2023/07/22 08:00:35;;;;;;;;;;;;;;;29.17;38.28;94360.16;4940935;28;9497;-63
2023/07/22 08:03:35;;;;;;;;;;;;;;;29.18;38.16;94362.41;4966019;28;9113;-63
2023/07/22 08:06:29;;;;;;;;;;;;;;;29.18;38.34;94354.09;4955327;28;9408;-63
2023/07/22 08:08:56;;;;;;;;;;;;;;;29.18;38.73;94356.84;4954770;28;9091;-62
2023/07/22 08:11:38;;;;;;;;;;;;;;;29.18;38.21;94359.63;5017506;28;7214;-63
2023/07/22 08:14:20;;;;;;;;;;;;;;;29.18;38.04;94359.63;5043667;28;7507;-62
2023/07/22 08:16:59;;;;;;;;;;;;;;;29.17;38.80;94362.94;5051223;28;9056;-62
2023/07/22 08:19:51;;;;;;;;;;;;;;;29.18;38.04;94367.19;5051051;28;7180;-62
2023/07/22 08:22:31;;;;;;;;;;;;;;;29.19;38.94;94363.88;5035039;28;9451;-63
2023/07/22 08:25:26;;;;;;;;;;;;;;;29.19;38.73;94363.88;5027853;28;6986;-63
2023/07/22 08:28:00;;;;;;;;;;;;;;;29.19;38.33;94363.88;5021623;28;8928;-63
2023/07/22 08:30:49;;;;;;;;;;;;;;;29.20;38.24;94359.84;5006647;28;9330;-63
2023/07/22 08:33:26;;;;;;;;;;;;;;;29.20;38.66;94361.84;5008328;28;6999;-63
2023/07/22 08:36:02;;;;;;;;;;;;;;;29.21;38.57;94357.81;5012271;28;7044;-62
2023/07/22 08:38:28;;;;;;;;;;;;;;;29.21;39.02;94361.31;5018371;28;9064;-63
2023/07/22 08:40:56;;;;;;;;;;;;;;;29.22;39.00;94370.38;5003867;28;9080;-63
2023/07/22 08:43:30;;;;;;;;;;;;;;;29.20;38.34;94362.59;5018870;28;9029;-63
2023/07/22 08:46:01;;;;;;;;;;;;;;;29.23;38.83;94367.06;5021794;28;7076;-63
2023/07/22 08:48:42;;;;;;;;;;;;;;;29.21;38.89;94371.66;5024789;28;7050;-63
2023/07/22 08:51:18;;;;;;;;;;;;;;;29.21;38.90;94366.84;5008761;28;9055;-63
2023/07/22 08:54:22;;;;;;;;;;;;;;;29.24;38.36;94370.56;5020394;28;7224;-63
2023/07/22 08:57:08;;;;;;;;;;;;;;;29.23;38.90;94372.59;4968951;28;7177;-63
2023/07/22 08:59:57;;;;;;;;;;;;;;;29.21;38.95;94366.13;4971898;28;6990;-62
2023/07/22 09:02:25;;;;;;;;;;;;;;;29.19;38.55;94368.69;4969354;28;7682;-63
2023/07/22 09:04:56;;;;;;;;;;;;;;;29.19;38.73;94369.41;4981838;28;7297;-62
2023/07/22 09:07:40;;;;;;;;;;;;;;;29.20;38.76;94362.59;4990262;28;7235;-62
2023/07/22 09:10:15;;;;;;;;;;;;;;;29.18;38.70;94364.41;4980429;28;6989;-62
2023/07/22 09:12:55;;;;;;;;;;;;;;;29.20;38.40;94370.16;4988042;28;7699;-62
2023/07/22 09:15:23;;;;;;;;;;;;;;;29.20;38.06;94370.16;4988346;28;8747;-63
2023/07/22 09:18:21;;;;;;;;;;;;;;;29.19;37.68;94357.59;4970883;28;7567;-62
2023/07/22 09:20:52;;;;;;;;;;;;;;;29.15;37.50;94352.34;4959836;28;7510;-63
2023/07/22 09:23:37;;;;;;;;;;;;;;;29.21;37.80;94355.03;4950238;28;9231;-63
2023/07/22 09:26:13;;;;;;;;;;;;;;;29.21;37.10;94361.31;4946127;28;7243;-62
2023/07/22 09:28:57;;;;;;;;;;;;;;;29.17;37.85;94354.63;4958983;28;9050;-62
2023/07/22 09:31:28;;;;;;;;;;;;;;;29.19;37.36;94363.16;4944410;28;8776;-63
2023/07/22 09:33:54;;;;;;;;;;;;;;;29.20;37.50;94364.63;4966081;28;8804;-63
2023/07/22 09:36:23;;;;;;;;;;;;;;;29.21;37.07;94361.31;4949653;28;7270;-62
2023/07/22 09:39:05;;;;;;;;;;;;;;;29.23;37.32;94355.25;4968087;28;7874;-62
2023/07/22 09:41:31;;;;;;;;;;;;;;;29.24;37.42;94359.50;4967005;28;9254;-62
2023/07/22 09:43:57;;;;;;;;;;;;;;;29.24;37.49;94359.50;4950994;28;8794;-63
2023/07/22 09:46:32;;;;;;;;;;;;;;;29.24;37.57;94365.78;4953731;28;7441;-62
2023/07/22 09:49:05;;;;;;;;;;;;;;;29.20;36.98;94359.09;4965747;28;7138;-62
2023/07/22 09:51:40;;;;;;;;;;;;;;;29.23;36.99;94358.75;4950453;28;7252;-62
2023/07/22 09:54:11;;;;;;;;;;;;;;;29.26;37.86;94368.00;4969206;28;9120;-62
2023/07/22 09:56:46;;;;;;;;;;;;;;;29.26;37.65;94359.69;4977409;28;9218;-62
2023/07/22 09:59:15;;;;;;;;;;;;;;;29.27;36.78;94359.19;5027845;28;7243;-62
2023/07/22 10:01:46;;;;;;;;;;;;;;;29.28;37.70;94362.69;5025666;28;7282;-62
2023/07/22 10:04:16;;;;;;;;;;;;;;;29.30;37.60;94360.13;5045214;28;9091;-66
2023/07/22 10:06:45;;;;;;;;;;;;;;;29.31;37.44;94353.31;5046148;28;7065;-65
2023/07/22 10:09:15;;;;;;;;;;;;;;;29.32;36.90;94352.75;5025213;28;7103;-65
2023/07/22 10:11:42;;;;;;;;;;;;;;;29.34;37.06;94349.47;5046225;28;7373;-66
2023/07/22 10:14:12;;;;;;;;;;;;;;;29.35;37.22;94348.19;5047117;28;9220;-65
2023/07/22 10:16:38;;;;;;;;;;;;;;;29.34;37.10;94352.97;5049223;28;7179;-65
2023/07/22 10:19:09;;;;;;;;;;;;;;;29.36;37.37;94358.00;5064955;28;7311;-66
2023/07/22 10:21:38;;;;;;;;;;;;;;;29.37;36.82;94349.13;5034736;28;9229;-65
2023/07/22 10:24:09;;;;;;;;;;;;;;;29.35;37.03;94348.94;5055954;28;9077;-65
2023/07/22 10:26:38;;;;;;;;;;;;;;;29.39;37.80;94349.34;5061377;28;7183;-66
2023/07/22 10:29:05;;;;;;;;;;;;;;;29.41;36.73;94343.25;5035177;28;9154;-65
2023/07/22 10:31:32;;;;;;;;;;;;;;;29.41;37.17;94341.22;5065279;28;6963;-65
2023/07/22 10:34:03;;;;;;;;;;;;;;;29.40;36.81;94339.75;5034191;28;9077;-65
2023/07/22 10:36:30;;;;;;;;;;;;;;;29.41;36.81;94341.22;5040294;28;8392;-65
2023/07/22 10:38:58;;;;;;;;;;;;;;;29.44;37.09;94342.94;5034702;28;9224;-65
2023/07/22 10:41:27;;;;;;;;;;;;;;;29.41;37.02;94335.69;5032030;28;7242;-65
2023/07/22 10:43:57;;;;;;;;;;;;;;;29.43;37.14;94326.81;5033806;28;7010;-65
2023/07/22 10:46:39;;;;;;;;;;;;;;;29.46;36.61;94332.06;5052634;28;9119;-65
2023/07/22 10:49:16;;;;;;;;;;;;;;;29.46;37.24;94336.84;5032542;28;7345;-66
2023/07/22 10:51:49;;;;;;;;;;;;;;;29.46;37.31;94328.53;5055992;28;8771;-66
2023/07/22 10:54:35;;;;;;;;;;;;;;;29.47;37.75;94324.50;5048370;28;6990;-65
2023/07/22 10:57:18;;;;;;;;;;;;;;;29.48;37.55;94314.88;5032422;28;7067;-65
2023/07/22 10:59:56;;;;;;;;;;;;;;;29.50;37.34;94309.53;5061892;28;7176;-65
2023/07/22 11:02:29;;;;;;;;;;;;;;;29.50;37.51;94304.00;5032944;28;7215;-65
2023/07/22 11:05:05;;;;;;;;;;;;;;;29.51;37.62;94311.03;5026687;28;6988;-66
2023/07/22 11:07:51;;;;;;;;;;;;;;;29.51;37.38;94299.97;5048005;28;7025;-65
2023/07/22 11:10:56;;;;;;;;;;;;;;;29.52;36.67;94307.72;5034424;28;8175;-65
2023/07/22 11:13:34;;;;;;;;;;;;;;;29.52;36.53;94302.19;5000413;28;8269;-65
2023/07/22 11:16:00;;;;;;;;;;;;;;;29.53;37.32;94292.59;5009684;28;8575;-62
2023/07/22 11:18:51;;;;;;;;;;;;;;;29.54;37.77;94293.31;5013653;28;9518;-62
2023/07/22 11:21:21;;;;;;;;;;;;;;;29.52;36.87;94298.66;5001191;28;7268;-62
2023/07/22 11:23:58;;;;;;;;;;;;;;;29.54;37.05;94288.53;5012977;28;9305;-61
2023/07/22 11:26:27;;;;;;;;;;;;;;;29.56;36.56;94296.28;5012804;28;9543;-62
2023/07/22 11:29:00;;;;;;;;;;;;;;;29.55;37.02;94292.81;5006738;28;9104;-62
2023/07/22 11:31:42;;;;;;;;;;;;;;;29.55;37.44;94290.03;5010038;28;7318;-62
2023/07/22 11:34:15;;;;;;;;;;;;;;;29.57;36.99;94298.56;5011439;28;7251;-62
2023/07/22 11:36:47;;;;;;;;;;;;;;;29.58;36.90;94299.31;4993678;28;6979;-61
2023/07/22 11:39:15;;;;;;;;;;;;;;;29.57;36.98;94289.47;5011934;28;9114;-62
2023/07/22 11:41:43;;;;;;;;;;;;;;;29.60;37.54;94303.00;5016013;28;7690;-62
2023/07/22 11:44:13;;;;;;;;;;;;;;;29.59;36.50;94293.22;5008464;28;7860;-62
2023/07/22 11:47:07;;;;;;;;;;;;;;;29.63;37.11;94288.06;5010013;28;7250;-62
2023/07/22 11:49:48;;;;;;;;;;;;;;;29.65;37.38;94285.50;5013327;28;7352;-62
2023/07/22 11:52:26;;;;;;;;;;;;;;;29.66;37.03;94277.94;5047446;28;9088;-62
2023/07/22 11:55:03;;;;;;;;;;;;;;;29.64;36.92;94275.72;5064817;28;7667;-62
2023/07/22 11:57:31;;;;;;;;;;;;;;;29.67;37.78;94273.84;5053353;28;8799;-62
2023/07/22 11:59:57;;;;;;;;;;;;;;;29.68;36.73;94275.34;5031021;28;9394;-62
2023/07/22 12:02:25;;;;;;;;;;;;;;;29.67;37.49;94268.31;5035237;28;7047;-61
2023/07/22 12:05:04;;;;;;;;;;;;;;;29.69;37.86;94271.28;5032958;28;7294;-62
2023/07/22 12:07:37;;;;;;;;;;;;;;;29.72;37.53;94270.22;5047714;28;7233;-62
2023/07/22 12:10:10;;;;;;;;;;;;;;;29.73;37.25;94266.19;5035701;28;7276;-62
2023/07/22 12:13:04;;;;;;;;;;;;;;;29.72;37.31;94268.19;5032683;28;7419;-62
2023/07/22 12:15:32;;;;;;;;;;;;;;;29.74;37.09;94267.69;5048602;28;7502;-62
2023/07/22 12:18:13;;;;;;;;;;;;;;;29.74;37.72;94262.13;5036131;28;7212;-62
2023/07/22 12:20:48;;;;;;;;;;;;;;;29.75;37.53;94269.19;5032980;28;7017;-62
2023/07/22 12:23:27;;;;;;;;;;;;;;;29.79;37.18;94275.88;5066225;28;7233;-62
2023/07/22 12:25:54;;;;;;;;;;;;;;;29.79;36.61;94269.56;5066267;28;9207;-62
2023/07/22 12:28:35;;;;;;;;;;;;;;;29.79;37.71;94264.03;5034264;28;7237;-62
2023/07/22 12:31:09;;;;;;;;;;;;;;;29.74;37.84;94259.34;5048453;28;7216;-62
2023/07/22 12:33:52;;;;;;;;;;;;;;;29.77;37.35;94266.59;5067408;28;7216;-62
2023/07/22 12:36:18;;;;;;;;;;;;;;;29.76;38.18;94260.31;5036619;28;7191;-62
2023/07/22 12:38:51;;;;;;;;;;;;;;;29.75;37.07;94253.25;5035530;28;7041;-62
2023/07/22 12:41:29;;;;;;;;;;;;;;;29.75;37.42;94250.50;5047150;28;9033;-62
2023/07/22 12:43:57;;;;;;;;;;;;;;;29.76;37.18;94256.78;5048107;28;9465;-63
2023/07/22 12:46:24;;;;;;;;;;;;;;;29.72;37.54;94248.03;5050505;28;7250;-62
2023/07/22 12:48:59;;;;;;;;;;;;;;;29.74;37.67;94251.03;5050149;28;6969;-62
2023/07/22 12:51:43;;;;;;;;;;;;;;;29.74;37.72;94248.28;5063918;28;7087;-62
2023/07/22 12:54:11;;;;;;;;;;;;;;;29.72;38.36;94245.25;5062421;28;8880;-62
2023/07/22 12:56:42;;;;;;;;;;;;;;;29.74;38.11;94251.03;5034746;28;6977;-62
2023/07/22 12:59:17;;;;;;;;;;;;;;;29.68;37.52;94247.63;5032213;28;9215;-63
2023/07/22 13:01:50;;;;;;;;;;;;;;;29.72;37.82;94248.03;5034609;28;9102;-63
2023/07/22 13:04:40;;;;;;;;;;;;;;;29.73;38.03;94247.50;5049786;28;7191;-62
2023/07/22 13:07:17;;;;;;;;;;;;;;;29.74;37.45;94239.94;5046180;28;8142;-62
2023/07/22 13:09:50;;;;;;;;;;;;;;;29.72;37.27;94242.50;5050604;28;8982;-63
2023/07/22 13:12:18;;;;;;;;;;;;;;;29.74;37.89;94237.19;5035189;28;7481;-62
2023/07/22 13:14:46;;;;;;;;;;;;;;;29.75;37.83;94230.34;5026521;28;7174;-62
2023/07/22 13:17:22;;;;;;;;;;;;;;;29.72;37.01;94229.38;5066642;28;9041;-62
2023/07/22 13:19:59;;;;;;;;;;;;;;;29.77;37.48;94227.78;5022126;28;7421;-62
2023/07/22 13:22:29;;;;;;;;;;;;;;;29.78;37.45;94234.81;5048905;28;7153;-62
2023/07/22 13:24:57;;;;;;;;;;;;;;;29.79;37.85;94237.06;5031646;28;7295;-62
2023/07/22 13:27:27;;;;;;;;;;;;;;;29.81;37.80;94236.50;5049701;28;6986;-62
2023/07/22 13:30:00;;;;;;;;;;;;;;;29.77;38.27;94236.84;5045735;28;7218;-62
2023/07/22 13:32:27;;;;;;;;;;;;;;;29.77;37.74;94230.56;5049104;28;6970;-62
2023/07/22 13:35:02;;;;;;;;;;;;;;;29.77;38.17;94234.09;5026501;28;6990;-66
2023/07/22 13:37:30;;;;;;;;;;;;;;;29.79;37.90;94231.50;5046532;28;9455;-66
2023/07/22 13:39:57;;;;;;;;;;;;;;;29.79;38.10;94230.75;5049023;28;9111;-66
2023/07/22 13:42:24;;;;;;;;;;;;;;;29.78;37.33;94232.78;5059111;28;9094;-66
2023/07/22 13:44:52;;;;;;;;;;;;;;;29.81;38.12;94228.19;5027843;28;6996;-65
2023/07/22 13:47:20;;;;;;;;;;;;;;;29.82;37.78;94229.66;5031753;28;8999;-66